Terminal Aerodrome Forecast
Issued by NWS

Current Version | Previous Version | Text Only | Print | Product List | Glossary On
Versions: 1 2 3 4 5 6 7 8 9 10 11 12 13 14 15
000
FTUS44 KMAF 241200 AAA
TAFPEQ
TAF AMD
KPEQ 241235Z 2413/2512 07007KT P6SM FEW250
     FM242000 10010G20KT P6SM SCT090 SCT250
     FM250200 10005KT P6SM SKC=

USA.gov is the U.S. government's official web portal to all federal, state and local government web resources and services.